Douglas, Illinois
Current Conditions -  °F | °C
As of 12:55 PM on Friday 21 Nov 2014 (Local Time) from K1H2 Reporting Station
Clear Clear  
Wind Chill: 29°   Ceiling: Unl
Heat Index: 36°   Visibility: NA
Dew Point:   Wind: 10mph
Humidity: 32%   Direction: 150°SSE
Pressure: 30.41"   Gusts: NA
Location:  39.1183°N, 88.6059°W
Report Text: K1H2 211855Z AUTO 15009KT CLR 02/M13 A3041 RMK AO2 T00241127 PWINO
Loading
Personal Weather Stations






























Interactive Weather Map New forecast layout! Learn more

10-Day Weather Forecast

Advertisements
Track Severe Weather on mobile